createdAt,value
2023-01-28T00:00:53.606Z,51.25
2023-01-28T00:03:20.210Z,51.36
2023-01-28T00:05:46.771Z,51.27
2023-01-28T00:08:14.866Z,51.63
2023-01-28T00:10:43.073Z,51.64
2023-01-28T00:13:12.717Z,51.51
2023-01-28T00:15:39.344Z,51.56
2023-01-28T00:18:05.901Z,51.64
2023-01-28T00:20:32.565Z,51.51
2023-01-28T00:22:59.107Z,51.41
2023-01-28T00:25:25.649Z,51.65
2023-01-28T00:27:52.239Z,51.31
2023-01-28T00:30:19.478Z,51.75
2023-01-28T00:32:46.091Z,51.77
2023-01-28T00:35:13.453Z,51.72
2023-01-28T00:37:41.279Z,51.16
2023-01-28T00:40:09.845Z,51.54
2023-01-28T00:42:37.299Z,51.74
2023-01-28T00:45:04.144Z,51.76
2023-01-28T00:47:30.693Z,51.77
2023-01-28T00:49:57.223Z,51.71
2023-01-28T00:52:23.818Z,51.88
2023-01-28T00:54:50.334Z,51.98
2023-01-28T00:57:16.869Z,52.21
2023-01-28T00:59:43.697Z,51.98
2023-01-28T01:02:13.879Z,51.63
2023-01-28T01:04:41.051Z,51.57
2023-01-28T01:07:07.665Z,51.34
2023-01-28T01:09:34.612Z,51.53
2023-01-28T01:12:01.465Z,51.11
2023-01-28T01:14:28.385Z,51.32
2023-01-28T01:16:55.099Z,51.28
2023-01-28T01:19:21.699Z,51.19
2023-01-28T01:21:50.425Z,51.52
2023-01-28T01:24:17.558Z,51.03
2023-01-28T01:26:44.327Z,50.67
2023-01-28T01:29:10.912Z,50.85
2023-01-28T01:31:37.551Z,51.01
2023-01-28T01:34:04.213Z,50.70
2023-01-28T01:36:31.177Z,50.92
2023-01-28T01:38:57.964Z,50.93
2023-01-28T01:41:31.212Z,51.19
2023-01-28T01:44:03.443Z,51.36
2023-01-28T01:46:45.563Z,51.06
2023-01-28T01:49:24.673Z,51.14
2023-01-28T01:52:01.261Z,51.05
2023-01-28T01:54:30.830Z,50.77
2023-01-28T01:56:59.469Z,50.81
2023-01-28T01:59:31.611Z,51.11
2023-01-28T02:02:01.458Z,51.13
2023-01-28T02:04:31.990Z,51.43
2023-01-28T02:07:01.488Z,50.96
2023-01-28T02:09:30.787Z,51.00
2023-01-28T02:12:03.318Z,50.59
2023-01-28T02:14:34.388Z,50.87
2023-01-28T02:17:01.937Z,50.92
2023-01-28T02:19:40.241Z,50.55
2023-01-28T02:22:24.887Z,50.88
2023-01-28T02:25:29.519Z,50.54
2023-01-28T02:28:12.884Z,50.44
2023-01-28T02:30:44.194Z,50.27
2023-01-28T02:33:18.288Z,50.57
2023-01-28T02:35:54.055Z,50.61
2023-01-28T02:38:33.152Z,50.51
2023-01-28T02:41:08.889Z,50.99
2023-01-28T02:43:37.378Z,50.87
2023-01-28T02:46:39.237Z,50.46
2023-01-28T02:49:11.774Z,50.72
2023-01-28T02:51:44.362Z,50.65
2023-01-28T02:54:17.715Z,50.63
2023-01-28T02:57:17.965Z,50.26
2023-01-28T02:59:53.869Z,50.41
2023-01-28T03:02:42.893Z,50.30
2023-01-28T03:05:22.381Z,50.26
2023-01-28T03:07:49.919Z,50.48
2023-01-28T03:10:20.628Z,50.27
2023-01-28T03:13:10.275Z,50.65
2023-01-28T03:16:07.134Z,50.25
2023-01-28T03:19:10.239Z,50.37
2023-01-28T03:22:00.869Z,50.27
2023-01-28T03:24:56.636Z,50.18
2023-01-28T03:27:51.413Z,50.50
2023-01-28T03:30:48.227Z,49.78
2023-01-28T03:33:45.106Z,50.17
2023-01-28T03:36:30.390Z,49.93
2023-01-28T03:38:58.444Z,49.86
2023-01-28T03:41:26.439Z,50.05
2023-01-28T03:43:55.923Z,50.31
2023-01-28T03:46:23.035Z,50.14
2023-01-28T03:48:49.604Z,50.30
2023-01-28T03:51:17.798Z,49.86
2023-01-28T03:53:44.355Z,50.33
2023-01-28T03:56:18.114Z,50.31
2023-01-28T03:58:53.944Z,50.12
2023-01-28T04:01:20.952Z,49.90
2023-01-28T04:03:47.980Z,49.85
2023-01-28T04:06:18.659Z,49.96
2023-01-28T04:08:59.232Z,50.02
2023-01-28T04:11:52.250Z,50.21
2023-01-28T04:14:40.112Z,50.14
2023-01-28T04:17:11.070Z,49.62
2023-01-28T04:19:38.586Z,49.86
2023-01-28T04:22:10.179Z,49.87
2023-01-28T04:24:36.994Z,50.15
2023-01-28T04:27:03.625Z,50.03
2023-01-28T04:29:31.627Z,50.01
2023-01-28T04:32:06.994Z,49.93
2023-01-28T04:34:54.760Z,49.73
2023-01-28T04:37:27.420Z,50.18
2023-01-28T04:40:09.765Z,49.90
2023-01-28T04:43:02.708Z,49.88
2023-01-28T04:45:36.677Z,49.72
2023-01-28T04:48:41.598Z,49.74
2023-01-28T04:51:26.684Z,50.10
2023-01-28T04:54:17.235Z,50.13
2023-01-28T04:56:43.881Z,50.25
2023-01-28T04:59:10.386Z,49.94
2023-01-28T05:01:38.002Z,50.10
2023-01-28T05:04:05.994Z,50.18
2023-01-28T05:06:36.130Z,49.97
2023-01-28T05:09:08.643Z,50.07
2023-01-28T05:11:37.853Z,50.18
2023-01-28T05:14:05.836Z,49.97
2023-01-28T05:16:42.731Z,49.66
2023-01-28T05:19:09.384Z,49.84
2023-01-28T05:21:39.782Z,50.15
2023-01-28T05:24:14.412Z,50.36
2023-01-28T05:26:41.130Z,49.92
2023-01-28T05:29:08.177Z,50.04
2023-01-28T05:31:35.108Z,50.28
2023-01-28T05:34:01.772Z,50.11
2023-01-28T05:36:28.321Z,50.16
2023-01-28T05:38:55.810Z,50.33
2023-01-28T05:41:22.394Z,50.01
2023-01-28T05:43:55.803Z,49.91
2023-01-28T05:46:45.425Z,50.09
2023-01-28T05:49:34.759Z,50.55
2023-01-28T05:52:26.963Z,50.39
2023-01-28T05:54:53.674Z,50.14
2023-01-28T05:57:20.273Z,50.24
2023-01-28T05:59:46.886Z,50.29
2023-01-28T06:02:13.520Z,50.41
2023-01-28T06:04:41.660Z,50.49
2023-01-28T06:07:09.114Z,50.71
2023-01-28T06:09:38.067Z,50.51
2023-01-28T06:12:05.213Z,50.74
2023-01-28T06:14:39.384Z,50.74
2023-01-28T06:17:25.867Z,50.14
2023-01-28T06:20:02.033Z,50.94
2023-01-28T06:22:30.746Z,50.69
2023-01-28T06:24:57.305Z,50.69
2023-01-28T06:27:23.949Z,50.71
2023-01-28T06:29:50.608Z,51.14
2023-01-28T06:32:17.192Z,50.59
2023-01-28T06:34:43.757Z,50.82
2023-01-28T06:37:13.439Z,50.28
2023-01-28T06:39:40.155Z,50.41
2023-01-28T06:42:06.880Z,50.37
2023-01-28T06:44:33.442Z,50.57
2023-01-28T06:47:00.180Z,50.53
2023-01-28T06:49:26.725Z,50.79
2023-01-28T06:51:53.272Z,50.53
2023-01-28T06:54:19.997Z,50.10
2023-01-28T06:56:46.542Z,50.22
2023-01-28T06:59:13.598Z,50.30
2023-01-28T07:01:40.246Z,50.25
2023-01-28T07:04:07.171Z,49.86
2023-01-28T07:06:33.706Z,50.06
2023-01-28T07:09:00.228Z,50.40
2023-01-28T07:11:26.754Z,50.07
2023-01-28T07:13:53.467Z,50.27
2023-01-28T07:16:19.999Z,49.99
2023-01-28T07:18:46.617Z,49.85
2023-01-28T07:21:13.147Z,50.14
2023-01-28T07:23:39.964Z,49.83
2023-01-28T07:26:06.526Z,49.25
2023-01-28T07:28:33.089Z,49.76
2023-01-28T07:30:59.827Z,49.21
2023-01-28T07:33:26.741Z,49.52
2023-01-28T07:35:53.330Z,49.49
2023-01-28T07:38:19.843Z,49.58
2023-01-28T07:40:46.488Z,49.24
2023-01-28T07:43:13.148Z,49.23
2023-01-28T07:45:40.641Z,48.76
2023-01-28T07:48:09.841Z,48.94
2023-01-28T07:50:38.037Z,48.81
2023-01-28T07:53:10.782Z,49.24
2023-01-28T07:55:38.310Z,49.23
2023-01-28T07:58:07.244Z,49.14
2023-01-28T08:00:35.965Z,49.00
2023-01-28T08:03:06.775Z,49.27
2023-01-28T08:05:43.291Z,49.50
2023-01-28T08:08:11.387Z,49.50
2023-01-28T08:10:38.814Z,49.97
2023-01-28T08:13:06.099Z,50.16
2023-01-28T08:15:35.197Z,50.03
2023-01-28T08:18:03.125Z,50.13
2023-01-28T08:20:30.457Z,49.37
2023-01-28T08:23:12.708Z,49.65
2023-01-28T08:25:39.363Z,49.73
2023-01-28T08:28:06.962Z,49.87
2023-01-28T08:30:34.239Z,49.52
2023-01-28T08:33:01.418Z,49.47
2023-01-28T08:35:28.578Z,49.20
2023-01-28T08:37:55.144Z,49.36
2023-01-28T08:40:21.965Z,49.78
2023-01-28T08:42:50.255Z,49.17
2023-01-28T08:45:17.611Z,49.09
2023-01-28T08:47:48.732Z,48.78
2023-01-28T08:50:16.659Z,49.47
2023-01-28T08:52:44.437Z,49.22
2023-01-28T08:55:12.140Z,49.18
2023-01-28T08:57:39.394Z,48.91
2023-01-28T09:00:07.369Z,48.71
2023-01-28T09:02:33.897Z,48.70
2023-01-28T09:05:00.494Z,48.85
2023-01-28T09:07:27.142Z,48.51
2023-01-28T09:09:53.684Z,48.69
2023-01-28T09:12:20.369Z,48.72
2023-01-28T09:14:46.903Z,47.81
2023-01-28T09:17:13.461Z,48.29
2023-01-28T09:19:40.210Z,48.67
2023-01-28T09:22:06.790Z,47.94
2023-01-28T09:24:33.429Z,47.72
2023-01-28T09:26:59.991Z,47.66
2023-01-28T09:29:26.561Z,47.61
2023-01-28T09:31:53.136Z,47.63
2023-01-28T09:34:19.709Z,47.29
2023-01-28T09:36:46.581Z,46.77
2023-01-28T09:39:13.146Z,46.68
2023-01-28T09:41:42.634Z,46.28
2023-01-28T09:44:28.880Z,46.85
2023-01-28T09:47:01.973Z,47.28
2023-01-28T09:49:44.627Z,46.71
2023-01-28T09:52:17.723Z,47.04
2023-01-28T09:55:02.825Z,46.70
2023-01-28T09:57:41.623Z,46.59
2023-01-28T10:00:37.966Z,46.37
2023-01-28T10:03:28.224Z,46.35
2023-01-28T10:06:32.575Z,45.80
2023-01-28T10:09:19.356Z,45.48
2023-01-28T10:11:51.438Z,45.27
2023-01-28T10:14:24.471Z,45.12
2023-01-28T10:17:00.710Z,45.13
2023-01-28T10:19:35.600Z,44.87
2023-01-28T10:22:07.378Z,44.87
2023-01-28T10:24:36.520Z,44.32
2023-01-28T10:27:12.588Z,44.28
2023-01-28T10:29:40.423Z,43.70
2023-01-28T10:32:34.376Z,43.20
2023-01-28T10:35:03.729Z,43.50
2023-01-28T10:37:39.729Z,43.45
2023-01-28T10:40:14.225Z,43.33
2023-01-28T10:42:40.901Z,43.31
2023-01-28T10:45:31.023Z,43.34
2023-01-28T10:48:07.856Z,43.17
2023-01-28T10:50:37.855Z,42.88
2023-01-28T10:53:06.121Z,43.04
2023-01-28T10:55:55.863Z,43.11
2023-01-28T10:58:25.528Z,42.44
2023-01-28T11:00:54.592Z,42.85
2023-01-28T11:03:22.944Z,42.62
2023-01-28T11:05:54.496Z,42.57
2023-01-28T11:08:22.370Z,41.86
2023-01-28T11:10:49.574Z,40.98
2023-01-28T11:13:26.710Z,41.13
2023-01-28T11:16:05.571Z,41.08
2023-01-28T11:18:40.807Z,41.19
2023-01-28T11:21:16.924Z,40.78
2023-01-28T11:23:59.664Z,40.61
2023-01-28T11:26:39.736Z,39.66
2023-01-28T11:29:07.327Z,38.36
2023-01-28T11:31:44.037Z,38.54
2023-01-28T11:34:17.256Z,39.05
2023-01-28T11:37:00.891Z,39.15
2023-01-28T11:39:29.559Z,39.24
2023-01-28T11:42:11.258Z,39.39
2023-01-28T11:44:38.524Z,39.21
2023-01-28T11:47:19.624Z,39.72
2023-01-28T11:49:55.334Z,39.45
2023-01-28T11:52:55.300Z,39.46
2023-01-28T11:55:39.958Z,39.74
2023-01-28T11:58:25.947Z,39.58
2023-01-28T12:01:16.619Z,38.98
2023-01-28T12:04:07.890Z,38.70
2023-01-28T12:06:53.207Z,38.82
2023-01-28T12:09:44.185Z,40.02
2023-01-28T12:12:38.592Z,40.14
2023-01-28T12:15:20.340Z,39.60
2023-01-28T12:18:06.409Z,39.53
2023-01-28T12:20:42.136Z,38.84
2023-01-28T12:23:46.453Z,38.95
2023-01-28T12:26:16.364Z,39.00
2023-01-28T12:28:44.585Z,38.66
2023-01-28T12:31:20.076Z,37.84
2023-01-28T12:33:54.577Z,38.25
2023-01-28T12:36:37.997Z,37.94
2023-01-28T12:39:23.123Z,37.45
2023-01-28T12:42:34.531Z,37.92
2023-01-28T12:45:40.943Z,38.63
2023-01-28T12:48:53.742Z,38.86
2023-01-28T12:51:27.542Z,38.83
2023-01-28T12:54:03.881Z,38.00
2023-01-28T12:56:40.249Z,37.48
2023-01-28T12:59:20.094Z,37.93
2023-01-28T13:02:11.476Z,37.41
2023-01-28T13:04:43.945Z,39.70
2023-01-28T13:07:50.097Z,40.80
2023-01-28T13:10:24.342Z,42.13
2023-01-28T13:12:51.782Z,42.30
2023-01-28T13:15:20.201Z,42.92
2023-01-28T13:18:05.065Z,43.67
2023-01-28T13:20:49.971Z,43.33
2023-01-28T13:23:37.629Z,43.79
2023-01-28T13:26:19.206Z,43.78
2023-01-28T13:28:48.062Z,44.11
2023-01-28T13:31:17.709Z,44.40
2023-01-28T13:33:54.738Z,44.50
2023-01-28T13:36:45.606Z,44.51
2023-01-28T13:39:18.114Z,44.47
2023-01-28T13:41:52.396Z,44.31
2023-01-28T13:44:32.593Z,43.80
2023-01-28T13:47:14.711Z,44.07
2023-01-28T13:49:48.774Z,43.81
2023-01-28T13:52:25.171Z,44.33
2023-01-28T13:55:03.474Z,44.32
2023-01-28T13:57:58.040Z,44.15
2023-01-28T14:00:33.013Z,44.25
2023-01-28T14:03:26.245Z,44.38
2023-01-28T14:06:26.398Z,43.88
2023-01-28T14:09:04.322Z,44.48
2023-01-28T14:12:11.524Z,44.08
2023-01-28T14:15:16.591Z,44.12
2023-01-28T14:17:53.855Z,44.19
2023-01-28T14:20:28.850Z,44.30
2023-01-28T14:23:01.528Z,43.90
2023-01-28T14:25:40.967Z,43.77
2023-01-28T14:28:12.796Z,43.88
2023-01-28T14:30:50.672Z,43.64
2023-01-28T14:33:17.798Z,43.97
2023-01-28T14:35:47.147Z,43.58
2023-01-28T14:38:21.140Z,44.14
2023-01-28T14:40:55.569Z,44.07
2023-01-28T14:43:24.868Z,45.30
2023-01-28T14:45:51.429Z,45.46
2023-01-28T14:48:29.754Z,45.28
2023-01-28T14:51:31.197Z,45.63
2023-01-28T14:54:18.450Z,45.41
2023-01-28T14:57:15.639Z,45.30
2023-01-28T14:59:53.811Z,45.62
2023-01-28T15:02:31.049Z,46.15
2023-01-28T15:05:15.023Z,46.41
2023-01-28T15:07:46.368Z,46.08
2023-01-28T15:10:19.144Z,45.36
2023-01-28T15:12:52.013Z,46.26
2023-01-28T15:15:29.544Z,46.36
2023-01-28T15:18:03.209Z,46.17
2023-01-28T15:20:30.752Z,46.13
2023-01-28T15:22:57.555Z,46.28
2023-01-28T15:25:28.115Z,46.23
2023-01-28T15:27:58.825Z,46.11
2023-01-28T15:30:28.711Z,45.93
2023-01-28T15:33:01.349Z,45.59
2023-01-28T15:35:28.409Z,45.30
2023-01-28T15:37:55.046Z,45.53
2023-01-28T15:40:23.075Z,45.96
2023-01-28T15:42:50.870Z,45.71
2023-01-28T15:45:19.658Z,45.73
2023-01-28T15:47:47.937Z,44.93
2023-01-28T15:50:19.367Z,45.63
2023-01-28T15:52:46.483Z,45.89
2023-01-28T15:55:37.392Z,45.69
2023-01-28T15:58:20.410Z,45.96
2023-01-28T16:00:48.665Z,45.52
2023-01-28T16:03:20.733Z,45.71
2023-01-28T16:06:02.406Z,45.56
2023-01-28T16:11:02.775Z,45.32
2023-01-28T16:13:32.831Z,45.62
2023-01-28T16:16:01.545Z,45.84
2023-01-28T16:18:43.327Z,44.85
2023-01-28T16:21:15.209Z,45.38
2023-01-28T16:24:13.560Z,45.15
2023-01-28T16:26:40.127Z,45.42
2023-01-28T16:29:15.216Z,45.43
2023-01-28T16:31:41.820Z,45.63
2023-01-28T16:34:10.888Z,45.75
2023-01-28T16:36:37.588Z,46.35
2023-01-28T16:39:04.220Z,46.12
2023-01-28T16:41:35.291Z,46.20
2023-01-28T16:44:05.530Z,45.83
2023-01-28T16:46:33.458Z,46.26
2023-01-28T16:49:00.413Z,46.42
2023-01-28T16:51:27.012Z,46.44
2023-01-28T16:53:53.637Z,46.49
2023-01-28T16:56:43.607Z,46.94
2023-01-28T16:59:11.936Z,46.77
2023-01-28T17:01:38.592Z,47.02
2023-01-28T17:04:11.546Z,47.10
2023-01-28T17:06:39.720Z,47.04
2023-01-28T17:09:06.439Z,47.34
2023-01-28T17:11:34.057Z,47.24
2023-01-28T17:14:01.113Z,47.17
2023-01-28T17:16:28.093Z,47.47
2023-01-28T17:18:55.039Z,47.32
2023-01-28T17:21:21.956Z,47.56
2023-01-28T17:23:48.646Z,47.79
2023-01-28T17:26:16.347Z,48.00
2023-01-28T17:28:43.414Z,48.33
2023-01-28T17:31:12.850Z,48.48
2023-01-28T17:33:40.710Z,48.48
2023-01-28T17:36:07.980Z,48.68
2023-01-28T17:38:34.646Z,48.64
2023-01-28T17:41:05.856Z,48.65
2023-01-28T17:43:34.444Z,49.01
2023-01-28T17:46:01.789Z,48.82
2023-01-28T17:48:29.454Z,49.12
2023-01-28T17:50:57.195Z,49.82
2023-01-28T17:53:24.472Z,49.59
2023-01-28T17:55:51.200Z,49.63
2023-01-28T17:58:17.811Z,49.33
2023-01-28T18:00:44.393Z,49.78
2023-01-28T18:03:15.065Z,49.83
2023-01-28T18:05:42.255Z,49.92
2023-01-28T18:08:08.925Z,50.30
2023-01-28T18:10:35.703Z,50.29
2023-01-28T18:13:02.273Z,49.82
2023-01-28T18:15:28.911Z,49.82
2023-01-28T18:17:55.461Z,50.15
2023-01-28T18:20:22.026Z,50.41
2023-01-28T18:22:48.768Z,50.44
2023-01-28T18:25:17.596Z,50.67
2023-01-28T18:27:45.168Z,50.79
2023-01-28T18:30:14.099Z,50.67
2023-01-28T18:32:40.740Z,50.78
2023-01-28T18:35:07.877Z,51.09
2023-01-28T18:37:34.423Z,51.21
2023-01-28T18:40:01.024Z,51.21
2023-01-28T18:42:27.663Z,50.82
2023-01-28T18:44:54.250Z,50.87
2023-01-28T18:47:21.523Z,51.36
2023-01-28T18:49:48.070Z,51.49
2023-01-28T18:52:14.681Z,51.58
2023-01-28T18:54:41.229Z,51.79
2023-01-28T18:57:07.805Z,51.92
2023-01-28T18:59:34.381Z,51.16
2023-01-28T19:02:01.559Z,51.45
2023-01-28T19:04:28.105Z,51.55
2023-01-28T19:06:57.847Z,50.91
2023-01-28T19:09:24.371Z,51.34
2023-01-28T19:11:51.191Z,50.76
2023-01-28T19:14:18.135Z,51.08
2023-01-28T19:16:44.847Z,51.23
2023-01-28T19:19:12.155Z,51.24
2023-01-28T19:21:38.885Z,51.26
2023-01-28T19:24:09.609Z,51.18
2023-01-28T19:26:37.072Z,51.18
2023-01-28T19:29:07.573Z,51.23
2023-01-28T19:31:34.150Z,51.25
2023-01-28T19:34:00.870Z,50.78
2023-01-28T19:36:29.798Z,50.78
2023-01-28T19:39:01.679Z,50.76
2023-01-28T19:41:29.051Z,50.62
2023-01-28T19:43:56.623Z,50.66
2023-01-28T19:46:23.272Z,50.60
2023-01-28T19:48:49.903Z,50.70
2023-01-28T19:51:17.289Z,50.43
2023-01-28T19:53:45.050Z,50.36
2023-01-28T19:56:16.317Z,50.98
2023-01-28T19:58:44.344Z,51.40
2023-01-28T20:01:13.619Z,51.48
2023-01-28T20:03:40.782Z,51.51
2023-01-28T20:06:11.580Z,51.70
2023-01-28T20:08:38.146Z,51.58
2023-01-28T20:11:11.043Z,51.36
2023-01-28T20:13:39.529Z,50.99
2023-01-28T20:16:08.363Z,51.17
2023-01-28T20:18:35.738Z,51.10
2023-01-28T20:21:04.849Z,51.08
2023-01-28T20:23:31.752Z,51.14
2023-01-28T20:26:00.937Z,51.00
2023-01-28T20:28:28.147Z,50.89
2023-01-28T20:30:55.513Z,50.64
2023-01-28T20:33:22.884Z,50.98
2023-01-28T20:35:49.451Z,50.95
2023-01-28T20:38:15.964Z,50.47
2023-01-28T20:40:43.250Z,50.14
2023-01-28T20:43:10.086Z,50.38
2023-01-28T20:45:36.687Z,50.12
2023-01-28T20:48:03.238Z,49.89
2023-01-28T20:50:29.760Z,49.71
2023-01-28T20:52:56.486Z,49.69
2023-01-28T20:55:23.082Z,49.45
2023-01-28T20:57:51.947Z,49.83
2023-01-28T21:00:19.087Z,49.34
2023-01-28T21:02:46.012Z,49.68
2023-01-28T21:05:12.868Z,49.82
2023-01-28T21:07:39.551Z,49.49
2023-01-28T21:10:06.617Z,49.75
2023-01-28T21:12:33.436Z,49.45
2023-01-28T21:14:59.945Z,49.26
2023-01-28T21:17:26.509Z,49.39
2023-01-28T21:19:53.024Z,49.70
2023-01-28T21:22:20.119Z,49.17
2023-01-28T21:24:48.843Z,49.52
2023-01-28T21:27:15.525Z,49.53
2023-01-28T21:29:42.328Z,49.11
2023-01-28T21:32:09.006Z,49.46
2023-01-28T21:34:35.665Z,49.55
2023-01-28T21:37:02.279Z,49.45
2023-01-28T21:39:28.882Z,49.37
2023-01-28T21:41:55.622Z,49.69
2023-01-28T21:44:22.388Z,49.43
2023-01-28T21:46:49.013Z,49.31
2023-01-28T21:49:15.661Z,49.32
2023-01-28T21:51:47.938Z,49.05
2023-01-28T21:54:16.906Z,49.49
2023-01-28T21:56:47.838Z,49.91
2023-01-28T21:59:30.647Z,49.73
2023-01-28T22:02:02.703Z,50.02
2023-01-28T22:04:32.627Z,49.96
2023-01-28T22:07:00.258Z,50.11
2023-01-28T22:09:27.650Z,49.81
2023-01-28T22:11:54.399Z,50.47
2023-01-28T22:14:21.000Z,50.16
2023-01-28T22:16:48.076Z,50.15
2023-01-28T22:19:15.031Z,50.25
2023-01-28T22:21:43.620Z,49.89
2023-01-28T22:24:15.188Z,50.02
2023-01-28T22:26:43.056Z,49.59
2023-01-28T22:29:10.443Z,49.57
2023-01-28T22:31:37.620Z,50.01
2023-01-28T22:34:04.989Z,50.10
2023-01-28T22:36:32.984Z,50.30
2023-01-28T22:39:02.915Z,49.98
2023-01-28T22:41:30.177Z,50.24
2023-01-28T22:43:56.904Z,50.23
2023-01-28T22:46:25.055Z,49.94
2023-01-28T22:48:51.819Z,50.18
2023-01-28T22:51:24.309Z,49.84
2023-01-28T22:53:52.210Z,49.62
2023-01-28T22:56:22.054Z,49.47
2023-01-28T22:58:48.740Z,49.82
2023-01-28T23:01:15.685Z,50.17
2023-01-28T23:03:49.822Z,49.75
2023-01-28T23:06:18.877Z,50.08
2023-01-28T23:08:45.789Z,49.99
2023-01-28T23:11:15.549Z,49.95
2023-01-28T23:14:01.610Z,49.87
2023-01-28T23:16:47.789Z,50.00
2023-01-28T23:19:33.540Z,49.95
2023-01-28T23:22:19.317Z,49.24
2023-01-28T23:24:45.865Z,49.67
2023-01-28T23:27:12.421Z,50.05
2023-01-28T23:29:38.973Z,50.26
2023-01-28T23:32:09.910Z,50.37
2023-01-28T23:34:41.629Z,50.39
2023-01-28T23:37:09.886Z,50.10
2023-01-28T23:39:36.691Z,49.96
2023-01-28T23:42:13.904Z,50.43
2023-01-28T23:44:40.691Z,50.41
2023-01-28T23:47:07.692Z,50.41
2023-01-28T23:49:34.254Z,50.22
2023-01-28T23:52:01.403Z,50.41
2023-01-28T23:54:28.013Z,50.85
2023-01-28T23:56:54.533Z,51.20
2023-01-28T23:59:21.465Z,51.01
